createdAt,value
2022-11-16T00:02:12.942Z,99.65
2022-11-16T00:05:14.978Z,104.53
2022-11-16T00:08:16.550Z,104.67
2022-11-16T00:11:19.165Z,114.03
2022-11-16T00:14:21.281Z,99.28
2022-11-16T00:17:25.973Z,98.70
2022-11-16T00:20:27.515Z,108.80
2022-11-16T00:23:29.099Z,100.30
2022-11-16T00:26:30.752Z,91.38
2022-11-16T00:29:32.315Z,102.15
2022-11-16T00:32:37.330Z,98.40
2022-11-16T00:35:39.821Z,98.63
2022-11-16T00:38:41.498Z,91.70
2022-11-16T00:41:43.377Z,95.75
2022-11-16T00:44:44.979Z,104.15
2022-11-16T00:47:50.503Z,108.47
2022-11-16T00:50:52.165Z,98.03
2022-11-16T00:53:53.764Z,102.63
2022-11-16T00:56:55.328Z,93.35
2022-11-16T00:59:56.934Z,94.72
2022-11-16T01:02:58.524Z,108.13
2022-11-16T01:06:05.574Z,112.23
2022-11-16T01:09:07.128Z,119.33
2022-11-16T01:12:12.783Z,106.90
2022-11-16T01:15:14.433Z,121.45
2022-11-16T01:18:19.529Z,102.72
2022-11-16T01:21:22.215Z,117.03
2022-11-16T01:24:24.745Z,121.43
2022-11-16T01:27:26.579Z,111.95
2022-11-16T01:30:28.156Z,111.53
2022-11-16T01:33:33.588Z,106.00
2022-11-16T01:36:36.818Z,105.80
2022-11-16T01:39:38.429Z,109.17
2022-11-16T01:42:40.664Z,103.35
2022-11-16T01:45:42.493Z,98.07
2022-11-16T01:48:44.519Z,136.13
2022-11-16T01:51:48.272Z,96.10
2022-11-16T01:54:51.439Z,116.43
2022-11-16T01:57:53.004Z,125.75
2022-11-16T02:00:54.679Z,138.90
2022-11-16T02:03:59.907Z,121.25
2022-11-16T02:07:27.453Z,116.40
2022-11-16T02:10:50.255Z,126.97
2022-11-16T02:14:34.654Z,92.45
2022-11-16T02:18:02.246Z,113.05
2022-11-16T02:21:11.926Z,106.90
2022-11-16T02:24:25.524Z,120.63
2022-11-16T02:27:30.102Z,125.45
2022-11-16T02:30:31.747Z,150.90
2022-11-16T02:33:37.363Z,118.97
2022-11-16T02:36:42.220Z,110.63
2022-11-16T02:39:44.407Z,112.30
2022-11-16T02:42:50.078Z,151.23
2022-11-16T02:45:51.661Z,128.00
2022-11-16T02:48:54.402Z,142.27
2022-11-16T02:51:55.938Z,155.80
2022-11-16T02:55:01.781Z,144.90
2022-11-16T02:58:07.314Z,155.10
2022-11-16T03:01:12.318Z,111.45
2022-11-16T03:04:40.245Z,123.07
2022-11-16T03:08:02.779Z,127.47
2022-11-16T03:11:25.879Z,131.32
2022-11-16T03:14:38.296Z,130.88
2022-11-16T03:17:44.653Z,125.35
2022-11-16T03:20:50.728Z,111.93
2022-11-16T03:23:52.318Z,98.27
2022-11-16T03:27:01.520Z,117.00
2022-11-16T03:30:07.500Z,120.35
2022-11-16T03:33:22.195Z,113.70
2022-11-16T03:36:33.590Z,117.63
2022-11-16T03:39:37.076Z,103.73
2022-11-16T03:42:39.144Z,112.95
2022-11-16T03:45:40.764Z,112.47
2022-11-16T03:48:42.462Z,111.82
2022-11-16T03:51:47.641Z,98.77
2022-11-16T03:54:49.212Z,120.30
2022-11-16T03:57:50.765Z,125.60
2022-11-16T04:00:52.866Z,133.38
2022-11-16T04:03:54.528Z,165.10
2022-11-16T04:07:14.769Z,150.23
2022-11-16T04:10:34.847Z,197.40
2022-11-16T04:13:54.967Z,155.93
2022-11-16T04:17:15.259Z,143.07
2022-11-16T04:20:35.699Z,156.55
2022-11-16T04:23:55.859Z,152.07
2022-11-16T04:27:17.778Z,195.20
2022-11-16T04:30:19.351Z,136.10
2022-11-16T04:33:39.646Z,150.27
2022-11-16T04:37:03.732Z,145.23
2022-11-16T04:40:05.883Z,129.17
2022-11-16T04:43:07.643Z,135.13
2022-11-16T04:46:27.931Z,120.32
2022-11-16T04:49:29.480Z,116.15
2022-11-16T04:52:34.908Z,132.93
2022-11-16T04:55:36.493Z,113.17
2022-11-16T04:58:38.054Z,131.77
2022-11-16T05:01:58.091Z,120.18
2022-11-16T05:04:59.799Z,110.78
2022-11-16T05:08:04.399Z,138.37
2022-11-16T05:11:06.089Z,134.00
2022-11-16T05:14:09.240Z,130.43
2022-11-16T05:17:10.887Z,118.65
2022-11-16T05:20:31.104Z,114.65
2022-11-16T05:23:51.040Z,122.87
2022-11-16T05:26:52.598Z,110.27
2022-11-16T05:29:55.057Z,118.15
2022-11-16T05:32:56.650Z,138.35
2022-11-16T05:35:58.232Z,123.35
2022-11-16T05:38:59.777Z,105.77
2022-11-16T05:42:01.451Z,124.87
2022-11-16T05:45:03.497Z,114.10
2022-11-16T05:48:05.108Z,103.30
2022-11-16T05:51:06.694Z,97.35
2022-11-16T05:54:08.319Z,94.03
2022-11-16T05:57:09.886Z,89.17
2022-11-16T06:00:12.113Z,95.78
2022-11-16T06:03:13.732Z,81.82
2022-11-16T06:06:15.309Z,96.07
2022-11-16T06:09:16.908Z,100.70
2022-11-16T06:12:18.482Z,85.33
2022-11-16T06:15:20.026Z,88.93
2022-11-16T06:18:21.661Z,88.80
2022-11-16T06:21:23.301Z,90.72
2022-11-16T06:24:25.084Z,103.87
2022-11-16T06:27:26.636Z,90.80
2022-11-16T06:30:28.750Z,97.78
2022-11-16T06:33:33.593Z,113.97
2022-11-16T06:36:35.622Z,121.80
2022-11-16T06:39:37.215Z,112.17
2022-11-16T06:42:38.812Z,128.50
2022-11-16T06:45:40.440Z,126.97
2022-11-16T06:48:42.156Z,101.70
2022-11-16T06:51:43.877Z,107.35
2022-11-16T06:54:46.172Z,107.63
2022-11-16T06:57:47.836Z,96.80
2022-11-16T07:00:49.668Z,100.13
2022-11-16T07:03:51.253Z,100.97
2022-11-16T07:06:52.879Z,98.93
2022-11-16T07:09:54.506Z,95.90
2022-11-16T07:12:56.136Z,86.15
2022-11-16T07:16:04.048Z,95.65
2022-11-16T07:19:06.337Z,85.60
2022-11-16T07:22:08.326Z,88.38
2022-11-16T07:25:10.099Z,84.17
2022-11-16T07:28:11.806Z,88.25
2022-11-16T07:31:13.971Z,93.00
2022-11-16T07:34:15.543Z,88.60
2022-11-16T07:37:17.354Z,83.77
2022-11-16T07:40:19.327Z,83.03
2022-11-16T07:43:20.987Z,92.32
2022-11-16T07:46:47.419Z,89.75
2022-11-16T07:49:45.276Z,92.80
2022-11-16T07:52:46.868Z,82.93
2022-11-16T07:55:53.510Z,92.45
2022-11-16T07:58:55.124Z,81.35
2022-11-16T08:01:57.189Z,88.20
2022-11-16T08:04:58.969Z,78.50
2022-11-16T08:08:00.545Z,82.93
2022-11-16T08:11:03.285Z,88.85
2022-11-16T08:14:04.919Z,88.80
2022-11-16T08:17:08.389Z,86.18
2022-11-16T08:20:10.250Z,95.10
2022-11-16T08:23:12.016Z,81.20
2022-11-16T08:26:18.166Z,86.63
2022-11-16T08:29:20.060Z,93.03
2022-11-16T08:32:21.725Z,85.53
2022-11-16T08:35:23.444Z,96.85
2022-11-16T08:38:25.324Z,84.67
2022-11-16T08:41:26.966Z,84.10
2022-11-16T08:44:28.691Z,81.15
2022-11-16T08:47:30.281Z,81.00
2022-11-16T08:50:44.152Z,97.80
2022-11-16T08:53:57.621Z,84.53
2022-11-16T08:56:59.225Z,87.63
2022-11-16T09:00:00.819Z,82.15
2022-11-16T09:03:02.516Z,79.57
2022-11-16T09:06:04.830Z,74.97
2022-11-16T09:09:06.410Z,81.90
2022-11-16T09:12:08.037Z,75.90
2022-11-16T09:15:09.991Z,76.28
2022-11-16T09:18:11.582Z,77.07
2022-11-16T09:21:19.797Z,78.32
2022-11-16T09:24:21.496Z,79.53
2022-11-16T09:27:23.081Z,73.82
2022-11-16T09:30:24.708Z,74.80
2022-11-16T09:33:27.637Z,81.00
2022-11-16T09:36:29.374Z,68.40
2022-11-16T09:39:32.696Z,71.80
2022-11-16T09:42:37.112Z,71.65
2022-11-16T09:45:41.575Z,67.90
2022-11-16T09:48:43.250Z,75.25
2022-11-16T09:51:50.049Z,69.13
2022-11-16T09:54:51.637Z,76.20
2022-11-16T09:57:55.676Z,71.38
2022-11-16T10:01:01.915Z,63.20
2022-11-16T10:04:15.791Z,67.85
2022-11-16T10:07:22.793Z,63.95
2022-11-16T10:10:34.875Z,69.10
2022-11-16T10:14:11.846Z,70.18
2022-11-16T10:17:39.293Z,64.93
2022-11-16T10:21:07.354Z,64.45
2022-11-16T10:24:45.842Z,62.17
2022-11-16T10:27:52.876Z,66.20
2022-11-16T10:31:26.391Z,62.90
2022-11-16T10:34:30.604Z,73.43
2022-11-16T10:37:32.922Z,64.05
2022-11-16T10:40:37.968Z,60.95
2022-11-16T10:43:39.721Z,65.17
2022-11-16T10:46:44.832Z,61.28
2022-11-16T10:49:56.123Z,63.45
2022-11-16T10:52:58.418Z,59.38
2022-11-16T10:56:17.421Z,61.88
2022-11-16T10:59:19.425Z,63.97
2022-11-16T11:02:26.922Z,59.45
2022-11-16T11:05:28.601Z,66.22
2022-11-16T11:08:30.877Z,56.25
2022-11-16T11:11:50.982Z,58.65
2022-11-16T11:15:01.002Z,60.70
2022-11-16T11:18:19.093Z,58.03
2022-11-16T11:21:21.024Z,58.03
2022-11-16T11:24:43.898Z,59.25
2022-11-16T11:27:44.207Z,59.85
2022-11-16T11:30:56.551Z,60.67
2022-11-16T11:34:18.490Z,57.58
2022-11-16T11:37:23.621Z,56.40
2022-11-16T11:40:28.865Z,60.55
2022-11-16T11:43:31.235Z,57.28
2022-11-16T11:47:18.232Z,61.90
2022-11-16T11:50:16.816Z,57.33
2022-11-16T11:53:30.363Z,55.72
2022-11-16T11:56:32.417Z,51.92
2022-11-16T11:59:34.072Z,58.03
2022-11-16T12:03:11.095Z,53.33
2022-11-16T12:06:22.729Z,52.55
2022-11-16T12:09:45.738Z,49.70
2022-11-16T12:13:15.633Z,51.78
2022-11-16T12:16:33.912Z,57.20
2022-11-16T12:19:35.537Z,54.20
2022-11-16T12:22:40.127Z,54.15
2022-11-16T12:26:06.863Z,52.33
2022-11-16T12:29:34.607Z,51.95
2022-11-16T12:33:13.913Z,51.88
2022-11-16T12:36:35.816Z,50.47
2022-11-16T12:39:43.029Z,55.78
2022-11-16T12:43:02.067Z,44.25
2022-11-16T12:46:06.679Z,43.90
2022-11-16T12:49:20.707Z,44.67
2022-11-16T12:52:56.874Z,41.63
2022-11-16T12:56:20.510Z,39.67
2022-11-16T12:59:53.101Z,38.08
2022-11-16T13:03:09.195Z,41.72
2022-11-16T13:06:13.410Z,43.45
2022-11-16T13:09:26.444Z,39.57
2022-11-16T13:12:28.068Z,40.35
2022-11-16T13:15:37.658Z,38.65
2022-11-16T13:18:41.441Z,43.85
2022-11-16T13:22:04.894Z,40.75
2022-11-16T13:25:12.971Z,38.97
2022-11-16T13:28:17.635Z,39.83
2022-11-16T13:31:27.707Z,42.83
2022-11-16T13:34:32.023Z,40.17
2022-11-16T13:37:36.727Z,44.63
2022-11-16T13:40:38.298Z,43.03
2022-11-16T13:43:47.533Z,38.55
2022-11-16T13:47:05.868Z,40.20
2022-11-16T13:50:17.286Z,37.80
2022-11-16T13:56:49.042Z,34.00
2022-11-16T14:00:01.247Z,37.00
2022-11-16T14:03:30.258Z,29.20
2022-11-16T14:06:31.833Z,32.50
2022-11-16T14:09:47.579Z,32.15
2022-11-16T14:12:55.411Z,30.73
2022-11-16T14:16:15.409Z,31.30
2022-11-16T14:19:45.240Z,31.60
2022-11-16T14:23:03.831Z,32.05
2022-11-16T14:26:12.106Z,30.38
2022-11-16T14:29:35.742Z,32.40
2022-11-16T14:32:44.208Z,30.30
2022-11-16T14:35:48.608Z,30.52
2022-11-16T14:38:51.005Z,34.55
2022-11-16T14:41:52.622Z,32.22
2022-11-16T14:45:04.602Z,33.47
2022-11-16T14:48:17.362Z,30.55
2022-11-16T14:51:23.183Z,32.40
2022-11-16T14:54:30.027Z,30.10
2022-11-16T14:57:31.698Z,30.05
2022-11-16T15:00:33.316Z,30.93
2022-11-16T15:03:39.690Z,30.30
2022-11-16T15:06:53.607Z,30.67
2022-11-16T15:09:56.545Z,27.80
2022-11-16T15:12:58.107Z,28.00
2022-11-16T15:16:10.556Z,28.37
2022-11-16T15:19:12.250Z,27.88
2022-11-16T15:22:16.902Z,28.52
2022-11-16T15:25:42.950Z,30.83
2022-11-16T15:28:49.791Z,27.88
2022-11-16T15:31:51.701Z,26.73
2022-11-16T15:34:53.585Z,27.95
2022-11-16T15:38:23.721Z,27.55
2022-11-16T15:41:25.586Z,30.67
2022-11-16T15:44:27.192Z,31.45
2022-11-16T15:47:28.809Z,27.47
2022-11-16T15:50:30.682Z,29.80
2022-11-16T15:53:33.638Z,26.65
2022-11-16T15:56:35.435Z,26.05
2022-11-16T15:59:37.001Z,22.55
2022-11-16T16:02:38.581Z,21.40
2022-11-16T16:05:40.909Z,20.05
2022-11-16T16:08:42.544Z,19.05
2022-11-16T16:11:44.128Z,19.05
2022-11-16T16:14:46.253Z,20.55
2022-11-16T16:17:47.804Z,19.00
2022-11-16T16:20:49.424Z,21.85
2022-11-16T16:23:53.668Z,28.98
2022-11-16T16:26:55.396Z,24.35
2022-11-16T16:29:58.016Z,24.10
2022-11-16T16:32:59.604Z,26.73
2022-11-16T16:36:01.851Z,26.13
2022-11-16T16:39:03.406Z,27.92
2022-11-16T16:42:09.564Z,26.52
2022-11-16T16:45:21.930Z,29.48
2022-11-16T16:48:23.485Z,29.17
2022-11-16T16:51:25.114Z,30.00
2022-11-16T16:54:28.345Z,26.85
2022-11-16T16:57:29.913Z,26.70
2022-11-16T17:00:31.626Z,30.40
2022-11-16T17:03:33.578Z,29.97
2022-11-16T17:06:35.378Z,32.45
2022-11-16T17:09:36.975Z,28.58
2022-11-16T17:12:38.547Z,32.47
2022-11-16T17:15:40.151Z,27.80
2022-11-16T17:18:41.814Z,27.37
2022-11-16T17:21:43.408Z,27.05
2022-11-16T17:24:45.051Z,26.27
2022-11-16T17:27:46.719Z,26.63
2022-11-16T17:30:48.278Z,24.83
2022-11-16T17:33:49.999Z,26.33
2022-11-16T17:36:55.505Z,21.95
2022-11-16T17:39:57.118Z,25.02
2022-11-16T17:42:58.731Z,22.75
2022-11-16T17:46:10.531Z,23.52
2022-11-16T17:49:12.092Z,25.93
2022-11-16T17:52:13.643Z,24.80
2022-11-16T17:55:15.284Z,23.75
2022-11-16T17:58:16.845Z,25.55
2022-11-16T18:01:18.833Z,26.63
2022-11-16T18:04:20.489Z,26.30
2022-11-16T18:07:22.085Z,28.15
2022-11-16T18:10:24.394Z,26.35
2022-11-16T18:13:25.962Z,29.95
2022-11-16T18:16:29.507Z,31.00
2022-11-16T18:19:31.080Z,26.93
2022-11-16T18:22:32.631Z,25.60
2022-11-16T18:25:35.094Z,27.77
2022-11-16T18:28:36.803Z,23.77
2022-11-16T18:31:38.362Z,25.83
2022-11-16T18:34:39.997Z,27.73
2022-11-16T18:37:44.178Z,26.95
2022-11-16T18:40:45.794Z,26.67
2022-11-16T18:43:52.080Z,26.10
2022-11-16T18:46:53.664Z,25.97
2022-11-16T18:49:55.382Z,26.20
2022-11-16T18:52:57.398Z,26.20
2022-11-16T18:55:59.048Z,25.17
2022-11-16T18:59:00.657Z,25.10
2022-11-16T19:02:02.244Z,24.87
2022-11-16T19:05:04.183Z,23.30
2022-11-16T19:08:09.048Z,22.65
2022-11-16T19:11:15.060Z,22.25
2022-11-16T19:14:16.687Z,25.77
2022-11-16T19:17:21.498Z,23.00
2022-11-16T19:20:23.084Z,23.57
2022-11-16T19:23:28.524Z,23.05
2022-11-16T19:26:30.098Z,24.48
2022-11-16T19:29:31.662Z,19.83
2022-11-16T19:32:33.322Z,22.27
2022-11-16T19:35:36.698Z,23.35
2022-11-16T19:38:38.464Z,26.33
2022-11-16T19:41:42.102Z,27.77
2022-11-16T19:44:43.661Z,24.20
2022-11-16T19:47:45.312Z,27.43
2022-11-16T19:50:46.883Z,24.58
2022-11-16T19:53:48.545Z,24.17
2022-11-16T19:56:54.855Z,27.58
2022-11-16T19:59:56.935Z,27.73
2022-11-16T20:02:58.611Z,25.77
2022-11-16T20:06:11.467Z,26.92
2022-11-16T20:09:16.271Z,26.88
2022-11-16T20:12:17.981Z,25.98
2022-11-16T20:15:19.627Z,27.80
2022-11-16T20:18:21.352Z,24.27
2022-11-16T20:21:22.988Z,26.90
2022-11-16T20:24:27.535Z,24.48
2022-11-16T20:27:29.093Z,27.33
2022-11-16T20:30:30.806Z,25.27
2022-11-16T20:33:33.853Z,26.42
2022-11-16T20:36:35.931Z,25.50
2022-11-16T20:39:41.572Z,25.42
2022-11-16T20:42:43.136Z,27.27
2022-11-16T20:45:44.816Z,23.03
2022-11-16T20:48:46.563Z,25.17
2022-11-16T20:51:49.555Z,24.38
2022-11-16T20:54:51.120Z,23.58
2022-11-16T20:57:52.689Z,21.80
2022-11-16T21:00:54.357Z,23.23
2022-11-16T21:03:56.316Z,22.27
2022-11-16T21:06:57.951Z,21.60
2022-11-16T21:10:18.115Z,21.02
2022-11-16T21:13:38.794Z,21.98
2022-11-16T21:16:40.483Z,22.10
2022-11-16T21:19:59.546Z,19.55
2022-11-16T21:23:03.734Z,21.20
2022-11-16T21:26:15.173Z,24.23
2022-11-16T21:29:16.740Z,25.05
2022-11-16T21:32:18.306Z,25.33
2022-11-16T21:35:20.990Z,24.77
2022-11-16T21:38:26.360Z,24.52
2022-11-16T21:41:28.077Z,21.90
2022-11-16T21:44:41.815Z,25.23
2022-11-16T21:47:43.433Z,25.23
2022-11-16T21:50:44.996Z,22.73
2022-11-16T21:53:46.802Z,22.25
2022-11-16T21:56:51.336Z,23.55
2022-11-16T21:59:52.935Z,22.20
2022-11-16T22:02:54.547Z,25.30
2022-11-16T22:06:15.889Z,23.33
2022-11-16T22:09:20.599Z,23.23
2022-11-16T22:12:25.233Z,24.00
2022-11-16T22:15:27.147Z,25.80
2022-11-16T22:18:29.637Z,22.97
2022-11-16T22:21:31.231Z,23.27
2022-11-16T22:24:32.792Z,22.90
2022-11-16T22:27:52.438Z,25.05
2022-11-16T22:31:01.941Z,25.93
2022-11-16T22:34:03.498Z,25.20
2022-11-16T22:37:05.055Z,27.02
2022-11-16T22:40:13.587Z,27.25
2022-11-16T22:43:19.778Z,27.65
2022-11-16T22:46:21.349Z,27.97
2022-11-16T22:49:22.953Z,25.17
2022-11-16T22:52:24.490Z,29.38
2022-11-16T22:55:26.041Z,24.75
2022-11-16T22:58:27.589Z,25.63
2022-11-16T23:01:29.281Z,29.23
2022-11-16T23:07:38.859Z,29.15
2022-11-16T23:11:00.438Z,26.73
2022-11-16T23:14:20.702Z,28.83
2022-11-16T23:17:22.308Z,29.80
2022-11-16T23:20:42.569Z,29.45
2022-11-16T23:24:02.493Z,29.92
2022-11-16T23:27:22.769Z,29.70
2022-11-16T23:30:24.352Z,31.93
2022-11-16T23:33:43.896Z,32.47
2022-11-16T23:36:45.615Z,29.50
2022-11-16T23:39:47.184Z,31.52
2022-11-16T23:43:07.632Z,32.40
2022-11-16T23:46:09.233Z,31.60
2022-11-16T23:49:10.918Z,37.63
2022-11-16T23:52:12.570Z,37.05
2022-11-16T23:55:14.197Z,37.28
2022-11-16T23:58:15.847Z,41.17
